LHSM/SOB METAR and TAF weather

Enter ICAO airport designator
Station Type Date Time Source
LHSM METAR 2018/12/18 15:45 UTC NOAA

LHSM 181545Z 14003KT 8000 FEW033 M01/M01 Q1029


Station Type Date Time Source
LHSM Decoded METAR 2018/12/18 15:45 UTC NOAA

Station name not available
Dec 18, 2018 - 10:45 AM EST / 2018.12.18 1545 UTC
Wind: from the SE (140 degrees) at 3 MPH (3 KT):0
Visibility: 4 mile(s):0
Sky conditions: mostly clear
Temperature: 30 F (-1 C)
Dew Point: 30 F (-1 C)
Relative Humidity: 100%
Pressure (altimeter): 30.39 in. Hg (1029 hPa)
ob: LHSM 181545Z 14003KT 8000 FEW033 M01/M01 Q1029
cycle: 16

Station Type Date Time Source
LHSM TAF UTC NOAA

Error!


Example: see airport list